createdAt,value
2022-10-11T00:00:15.748Z,11.64
2022-10-11T00:03:24.665Z,11.59
2022-10-11T00:06:13.781Z,11.57
2022-10-11T00:09:02.800Z,11.55
2022-10-11T00:11:54.669Z,11.53
2022-10-11T00:15:05.710Z,11.52
2022-10-11T00:17:54.259Z,11.49
2022-10-11T00:20:45.319Z,11.45
2022-10-11T00:23:34.756Z,11.37
2022-10-11T00:26:24.776Z,11.32
2022-10-11T00:29:14.386Z,11.28
2022-10-11T00:32:04.786Z,11.25
2022-10-11T00:34:53.577Z,11.22
2022-10-11T00:37:43.032Z,11.21
2022-10-11T00:40:33.638Z,11.19
2022-10-11T00:43:25.489Z,11.19
2022-10-11T00:46:30.874Z,11.18
2022-10-11T00:49:25.668Z,11.15
2022-10-11T00:52:23.740Z,11.14
2022-10-11T00:55:18.636Z,11.12
2022-10-11T00:58:08.539Z,11.10
2022-10-11T01:00:57.436Z,11.10
2022-10-11T01:03:47.159Z,11.07
2022-10-11T01:06:36.117Z,11.07
2022-10-11T01:09:26.880Z,11.06
2022-10-11T01:12:18.997Z,11.04
2022-10-11T01:15:17.259Z,11.03
2022-10-11T01:18:10.773Z,10.97
2022-10-11T01:21:06.543Z,10.90
2022-10-11T01:24:23.574Z,10.86
2022-10-11T01:27:39.897Z,10.84
2022-10-11T01:30:30.397Z,10.84
2022-10-11T01:33:27.878Z,10.83
2022-10-11T01:36:34.472Z,10.82
2022-10-11T01:39:29.975Z,10.75
2022-10-11T01:42:20.615Z,10.70
2022-10-11T01:45:14.123Z,10.68
2022-10-11T01:48:09.795Z,10.66
2022-10-11T01:51:01.929Z,10.62
2022-10-11T01:54:10.453Z,10.58
2022-10-11T01:57:25.584Z,10.56
2022-10-11T02:00:18.830Z,10.53
2022-10-11T02:06:36.333Z,10.50
2022-10-11T02:09:30.412Z,10.49
2022-10-11T02:12:29.158Z,10.48
2022-10-11T02:15:22.144Z,10.48
2022-10-11T02:18:15.764Z,10.42
2022-10-11T02:21:09.922Z,10.40
2022-10-11T02:24:03.412Z,10.38
2022-10-11T02:26:57.161Z,10.35
2022-10-11T02:29:48.718Z,10.33
2022-10-11T02:32:41.756Z,10.32
2022-10-11T02:35:37.696Z,10.30
2022-10-11T02:38:30.196Z,10.26
2022-10-11T02:41:33.029Z,10.26
2022-10-11T02:44:29.560Z,10.23
2022-10-11T02:47:19.747Z,10.20
2022-10-11T02:50:12.406Z,10.18
2022-10-11T02:53:04.223Z,10.17
2022-10-11T02:55:54.823Z,10.11
2022-10-11T02:58:43.779Z,10.10
2022-10-11T03:01:33.404Z,10.06
2022-10-11T03:04:22.315Z,10.05
2022-10-11T03:07:12.091Z,10.00
2022-10-11T03:10:00.646Z,9.91
2022-10-11T03:12:50.650Z,9.86
2022-10-11T03:15:39.176Z,9.76
2022-10-11T03:18:27.642Z,9.75
2022-10-11T03:21:17.255Z,9.74
2022-10-11T03:24:09.625Z,9.68
2022-10-11T03:26:57.901Z,9.66
2022-10-11T03:29:47.043Z,9.67
2022-10-11T03:32:37.437Z,9.67
2022-10-11T03:35:26.399Z,9.65
2022-10-11T03:38:19.246Z,9.65
2022-10-11T03:41:09.846Z,9.65
2022-10-11T03:43:58.994Z,9.63
2022-10-11T03:46:48.418Z,9.63
2022-10-11T03:49:43.249Z,9.62
2022-10-11T03:52:32.647Z,9.63
2022-10-11T03:55:22.049Z,9.62
2022-10-11T03:58:11.776Z,9.62
2022-10-11T04:01:01.425Z,9.61
2022-10-11T04:03:51.407Z,9.60
2022-10-11T04:06:40.513Z,9.58
2022-10-11T04:09:30.089Z,9.56
2022-10-11T04:12:18.845Z,9.56
2022-10-11T04:15:12.959Z,9.56
2022-10-11T04:18:02.498Z,9.56
2022-10-11T04:20:51.689Z,9.53
2022-10-11T04:23:40.391Z,9.51
2022-10-11T04:26:32.978Z,9.50
2022-10-11T04:29:22.025Z,9.51
2022-10-11T04:32:16.960Z,9.51
2022-10-11T04:35:06.602Z,9.50
2022-10-11T04:37:56.070Z,9.50
2022-10-11T04:40:45.240Z,9.50
2022-10-11T04:43:34.196Z,9.51
2022-10-11T04:46:23.773Z,9.50
2022-10-11T04:49:13.344Z,9.52
2022-10-11T04:52:02.710Z,9.52
2022-10-11T04:54:51.674Z,9.52
2022-10-11T04:57:40.427Z,9.53
2022-10-11T05:00:29.393Z,9.54
2022-10-11T05:06:26.966Z,9.59
2022-10-11T05:09:16.129Z,9.62
2022-10-11T05:12:06.525Z,9.63
2022-10-11T05:14:55.484Z,9.66
2022-10-11T05:17:44.897Z,9.69
2022-10-11T05:20:35.221Z,9.74
2022-10-11T05:23:23.754Z,9.76
2022-10-11T05:26:15.871Z,9.80
2022-10-11T05:29:05.604Z,9.82
2022-10-11T05:31:55.199Z,9.88
2022-10-11T05:34:44.344Z,9.94
2022-10-11T05:37:34.326Z,9.98
2022-10-11T05:40:23.492Z,10.03
2022-10-11T05:43:13.066Z,10.09
2022-10-11T05:46:02.782Z,10.12
2022-10-11T05:48:53.239Z,10.18
2022-10-11T05:51:43.332Z,10.24
2022-10-11T05:54:33.615Z,10.30
2022-10-11T05:57:23.427Z,10.35
2022-10-11T06:00:15.644Z,10.41
2022-10-11T06:03:05.705Z,10.49
2022-10-11T06:05:57.366Z,10.57
2022-10-11T06:08:47.270Z,10.62
2022-10-11T06:11:36.998Z,10.70
2022-10-11T06:14:27.801Z,10.77
2022-10-11T06:17:16.348Z,10.83
2022-10-11T06:20:13.967Z,10.90
2022-10-11T06:23:04.605Z,10.98
2022-10-11T06:25:59.448Z,11.07
2022-10-11T06:28:48.951Z,11.16
2022-10-11T06:31:38.555Z,11.24
2022-10-11T06:34:28.403Z,11.35
2022-10-11T06:37:17.950Z,11.46
2022-10-11T06:40:12.591Z,11.55
2022-10-11T06:43:01.826Z,11.64
2022-10-11T06:45:52.163Z,11.73
2022-10-11T06:48:42.961Z,11.83
2022-10-11T06:51:33.654Z,11.94
2022-10-11T06:54:22.727Z,12.03
2022-10-11T06:57:12.711Z,12.13
2022-10-11T07:00:02.897Z,12.24
2022-10-11T07:02:52.275Z,12.37
2022-10-11T07:05:42.146Z,12.49
2022-10-11T07:08:32.004Z,12.61
2022-10-11T07:11:23.447Z,12.76
2022-10-11T07:14:12.204Z,12.90
2022-10-11T07:17:01.933Z,13.06
2022-10-11T07:19:51.560Z,13.19
2022-10-11T07:22:40.757Z,13.35
2022-10-11T07:25:32.137Z,13.50
2022-10-11T07:28:22.496Z,13.66
2022-10-11T07:31:15.256Z,13.81
2022-10-11T07:34:06.123Z,13.96
2022-10-11T07:36:55.755Z,14.15
2022-10-11T07:39:45.741Z,14.30
2022-10-11T07:42:36.542Z,14.47
2022-10-11T07:45:28.485Z,14.62
2022-10-11T07:48:17.354Z,14.79
2022-10-11T07:51:08.573Z,14.94
2022-10-11T07:53:58.018Z,15.08
2022-10-11T07:56:47.079Z,15.21
2022-10-11T07:59:38.279Z,15.35
2022-10-11T08:02:29.136Z,15.47
2022-10-11T08:05:38.032Z,15.57
2022-10-11T08:08:28.731Z,15.68
2022-10-11T08:11:26.716Z,15.76
2022-10-11T08:14:17.793Z,15.84
2022-10-11T08:17:08.894Z,15.92
2022-10-11T08:19:59.141Z,15.99
2022-10-11T08:22:50.731Z,16.06
2022-10-11T08:25:41.979Z,16.10
2022-10-11T08:28:31.783Z,16.15
2022-10-11T08:31:22.179Z,16.21
2022-10-11T08:34:12.979Z,16.26
2022-10-11T08:37:02.615Z,16.35
2022-10-11T08:39:51.447Z,16.39
2022-10-11T08:42:47.796Z,16.45
2022-10-11T08:45:46.782Z,16.48
2022-10-11T08:48:41.782Z,16.52
2022-10-11T08:51:38.538Z,16.60
2022-10-11T08:54:38.075Z,16.68
2022-10-11T08:57:29.488Z,16.77
2022-10-11T09:00:21.665Z,16.83
2022-10-11T09:03:23.070Z,16.88
2022-10-11T09:06:25.423Z,16.96
2022-10-11T09:09:33.828Z,17.06
2022-10-11T09:12:37.161Z,17.18
2022-10-11T09:15:40.819Z,17.29
2022-10-11T09:18:46.614Z,17.41
2022-10-11T09:21:42.322Z,17.54
2022-10-11T09:24:45.812Z,17.67
2022-10-11T09:28:01.740Z,17.81
2022-10-11T09:30:55.479Z,17.95
2022-10-11T09:33:47.473Z,18.09
2022-10-11T09:36:41.865Z,18.22
2022-10-11T09:39:33.409Z,18.35
2022-10-11T09:42:23.188Z,18.44
2022-10-11T09:45:18.073Z,18.53
2022-10-11T09:48:09.128Z,18.59
2022-10-11T09:51:06.642Z,18.67
2022-10-11T09:53:58.400Z,18.74
2022-10-11T09:56:48.251Z,18.80
2022-10-11T09:59:38.258Z,18.84
2022-10-11T10:02:27.808Z,18.87
2022-10-11T10:05:21.143Z,18.91
2022-10-11T10:08:26.424Z,18.97
2022-10-11T10:11:16.896Z,19.03
2022-10-11T10:14:06.494Z,19.04
2022-10-11T10:17:02.991Z,19.05
2022-10-11T10:19:54.952Z,19.10
2022-10-11T10:22:47.800Z,19.15
2022-10-11T10:25:43.289Z,19.22
2022-10-11T10:28:32.746Z,19.27
2022-10-11T10:31:24.686Z,19.32
2022-10-11T10:34:19.550Z,19.39
2022-10-11T10:37:18.403Z,19.41
2022-10-11T10:40:16.595Z,19.44
2022-10-11T10:43:05.326Z,19.47
2022-10-11T10:46:12.427Z,19.51
2022-10-11T10:52:48.742Z,19.56
2022-10-11T10:55:42.334Z,19.56
2022-10-11T10:59:06.087Z,19.60
2022-10-11T11:02:21.409Z,19.61
2022-10-11T11:05:38.449Z,19.61
2022-10-11T11:08:45.023Z,19.61
2022-10-11T11:11:50.345Z,19.59
2022-10-11T11:14:50.588Z,19.59
2022-10-11T11:17:54.904Z,19.59
2022-10-11T11:21:05.086Z,19.59
2022-10-11T11:24:03.756Z,19.59
2022-10-11T11:26:59.892Z,19.59
2022-10-11T11:29:59.479Z,19.58
2022-10-11T11:33:01.968Z,19.56
2022-10-11T11:35:53.958Z,19.55
2022-10-11T11:38:48.857Z,19.55
2022-10-11T11:41:41.645Z,19.54
2022-10-11T11:44:35.628Z,19.54
2022-10-11T11:47:32.777Z,19.57
2022-10-11T11:50:24.651Z,19.57
2022-10-11T11:53:19.826Z,19.58
2022-10-11T11:56:26.040Z,19.60
2022-10-11T11:59:23.024Z,19.62
2022-10-11T12:02:44.957Z,19.65
2022-10-11T12:05:36.853Z,19.68
2022-10-11T12:08:29.227Z,19.70
2022-10-11T12:11:22.049Z,19.70
2022-10-11T12:14:37.254Z,19.70
2022-10-11T12:17:45.462Z,19.72
2022-10-11T12:20:44.053Z,19.75
2022-10-11T12:23:48.817Z,19.79
2022-10-11T12:26:47.236Z,19.84
2022-10-11T12:29:57.620Z,19.86
2022-10-11T12:32:52.157Z,19.90
2022-10-11T12:36:01.481Z,19.91
2022-10-11T12:39:40.073Z,19.95
2022-10-11T12:42:34.218Z,19.96
2022-10-11T12:45:34.373Z,20.00
2022-10-11T12:48:46.157Z,20.01
2022-10-11T12:51:45.588Z,20.02
2022-10-11T12:54:54.024Z,20.03
2022-10-11T12:57:59.978Z,20.06
2022-10-11T13:01:13.749Z,20.09
2022-10-11T13:04:10.111Z,20.13
2022-10-11T13:07:12.210Z,20.15
2022-10-11T13:10:03.624Z,20.20
2022-10-11T13:12:53.636Z,20.22
2022-10-11T13:15:48.304Z,20.26
2022-10-11T13:18:41.639Z,20.30
2022-10-11T13:21:52.134Z,20.34
2022-10-11T13:24:43.453Z,20.37
2022-10-11T13:27:31.675Z,20.38
2022-10-11T13:30:24.975Z,20.42
2022-10-11T13:33:23.077Z,20.45
2022-10-11T13:36:17.384Z,20.47
2022-10-11T13:39:06.165Z,20.51
2022-10-11T13:41:54.427Z,20.54
2022-10-11T13:44:46.355Z,20.58
2022-10-11T13:47:36.448Z,20.58
2022-10-11T13:50:33.350Z,20.57
2022-10-11T13:53:28.276Z,20.58
2022-10-11T13:56:21.546Z,20.58
2022-10-11T13:59:21.388Z,20.59
2022-10-11T14:02:21.749Z,20.59
2022-10-11T14:05:28.272Z,20.59
2022-10-11T14:08:25.366Z,20.60
2022-10-11T14:11:16.551Z,20.60
2022-10-11T14:14:29.898Z,20.59
2022-10-11T14:17:20.925Z,20.54
2022-10-11T14:20:26.406Z,20.51
2022-10-11T14:23:19.608Z,20.49
2022-10-11T14:26:15.068Z,20.47
2022-10-11T14:29:12.668Z,20.43
2022-10-11T14:32:05.893Z,20.40
2022-10-11T14:34:54.699Z,20.36
2022-10-11T14:37:43.157Z,20.32
2022-10-11T14:40:33.430Z,20.28
2022-10-11T14:43:21.454Z,20.23
2022-10-11T14:46:19.382Z,20.19
2022-10-11T14:49:15.036Z,20.14
2022-10-11T14:52:06.626Z,20.09
2022-10-11T14:54:55.203Z,20.02
2022-10-11T14:57:43.986Z,20.00
2022-10-11T15:00:32.422Z,19.94
2022-10-11T15:03:21.299Z,19.88
2022-10-11T15:06:18.244Z,19.83
2022-10-11T15:09:07.689Z,19.77
2022-10-11T15:11:56.711Z,19.71
2022-10-11T15:14:44.681Z,19.66
2022-10-11T15:17:33.456Z,19.62
2022-10-11T15:20:26.771Z,19.57
2022-10-11T15:23:15.344Z,19.52
2022-10-11T15:26:03.938Z,19.45
2022-10-11T15:28:53.790Z,19.40
2022-10-11T15:31:46.266Z,19.33
2022-10-11T15:34:34.051Z,19.27
2022-10-11T15:37:22.000Z,19.19
2022-10-11T15:40:32.879Z,19.09
2022-10-11T15:43:24.708Z,18.95
2022-10-11T15:46:19.452Z,18.83
2022-10-11T15:49:19.457Z,18.75
2022-10-11T15:52:07.528Z,18.61
2022-10-11T15:54:55.709Z,18.47
2022-10-11T15:57:43.889Z,18.37
2022-10-11T16:00:32.141Z,18.27
2022-10-11T16:03:21.088Z,18.20
2022-10-11T16:06:10.204Z,18.13
2022-10-11T16:08:59.172Z,18.06
2022-10-11T16:11:50.466Z,17.98
2022-10-11T16:14:38.557Z,17.94
2022-10-11T16:17:26.670Z,17.92
2022-10-11T16:20:23.890Z,17.88
2022-10-11T16:23:12.907Z,17.85
2022-10-11T16:26:03.653Z,17.81
2022-10-11T16:28:52.818Z,17.77
2022-10-11T16:31:41.372Z,17.71
2022-10-11T16:34:29.488Z,17.64
2022-10-11T16:37:17.805Z,17.58
2022-10-11T16:40:08.715Z,17.56
2022-10-11T16:42:57.738Z,17.49
2022-10-11T16:45:46.045Z,17.45
2022-10-11T16:48:33.662Z,17.41
2022-10-11T16:51:23.555Z,17.36
2022-10-11T16:54:20.446Z,17.33
2022-10-11T16:57:10.503Z,17.29
2022-10-11T16:59:58.385Z,17.25
2022-10-11T17:02:46.498Z,17.23
2022-10-11T17:05:37.556Z,17.21
2022-10-11T17:08:26.269Z,17.17
2022-10-11T17:11:16.264Z,17.13
2022-10-11T17:14:06.713Z,17.10
2022-10-11T17:16:54.665Z,17.06
2022-10-11T17:19:45.220Z,17.03
2022-10-11T17:22:34.024Z,16.98
2022-10-11T17:28:55.313Z,16.90
2022-10-11T17:31:49.072Z,16.87
2022-10-11T17:34:38.232Z,16.83
2022-10-11T17:37:26.432Z,16.81
2022-10-11T17:40:15.025Z,16.75
2022-10-11T17:43:03.644Z,16.72
2022-10-11T17:45:56.359Z,16.65
2022-10-11T17:48:47.712Z,16.58
2022-10-11T17:51:36.526Z,16.51
2022-10-11T17:54:26.146Z,16.49
2022-10-11T17:57:14.361Z,16.47
2022-10-11T18:00:03.382Z,16.43
2022-10-11T18:02:53.524Z,16.42
2022-10-11T18:05:48.823Z,16.40
2022-10-11T18:08:40.627Z,16.37
2022-10-11T18:11:30.310Z,16.36
2022-10-11T18:14:21.661Z,16.34
2022-10-11T18:17:11.816Z,16.31
2022-10-11T18:20:00.005Z,16.28
2022-10-11T18:22:49.377Z,16.25
2022-10-11T18:25:37.788Z,16.21
2022-10-11T18:28:26.047Z,16.19
2022-10-11T18:31:17.134Z,16.17
2022-10-11T18:34:10.335Z,16.16
2022-10-11T18:36:59.761Z,16.13
2022-10-11T18:39:48.296Z,16.11
2022-10-11T18:42:36.344Z,16.10
2022-10-11T18:45:24.615Z,16.08
2022-10-11T18:48:12.769Z,16.07
2022-10-11T18:51:10.314Z,16.05
2022-10-11T18:53:59.315Z,16.03
2022-10-11T18:56:47.761Z,16.01
2022-10-11T18:59:35.942Z,15.95
2022-10-11T19:02:23.662Z,15.94
2022-10-11T19:05:12.077Z,15.92
2022-10-11T19:08:00.532Z,15.90
2022-10-11T19:10:48.445Z,15.88
2022-10-11T19:13:37.522Z,15.86
2022-10-11T19:16:27.242Z,15.84
2022-10-11T19:19:15.754Z,15.82
2022-10-11T19:22:04.229Z,15.81
2022-10-11T19:24:52.104Z,15.79
2022-10-11T19:27:40.430Z,15.77
2022-10-11T19:30:31.376Z,15.76
2022-10-11T19:33:19.584Z,15.74
2022-10-11T19:36:11.127Z,15.72
2022-10-11T19:38:59.752Z,15.68
2022-10-11T19:41:48.482Z,15.63
2022-10-11T19:44:39.560Z,15.61
2022-10-11T19:47:29.301Z,15.60
2022-10-11T19:50:17.943Z,15.59
2022-10-11T19:53:06.977Z,15.57
2022-10-11T19:55:54.978Z,15.55
2022-10-11T19:58:44.876Z,15.53
2022-10-11T20:01:33.688Z,15.53
2022-10-11T20:07:31.023Z,15.51
2022-10-11T20:10:20.659Z,15.49
2022-10-11T20:13:11.372Z,15.47
2022-10-11T20:16:02.603Z,15.45
2022-10-11T20:18:51.890Z,15.45
2022-10-11T20:21:41.606Z,15.42
2022-10-11T20:24:33.141Z,15.42
2022-10-11T20:27:22.570Z,15.39
2022-10-11T20:30:14.356Z,15.36
2022-10-11T20:33:02.170Z,15.35
2022-10-11T20:35:59.292Z,15.32
2022-10-11T20:38:48.651Z,15.31
2022-10-11T20:41:39.417Z,15.29
2022-10-11T20:44:27.420Z,15.28
2022-10-11T20:47:16.383Z,15.28
2022-10-11T20:50:06.510Z,15.27
2022-10-11T20:52:55.312Z,15.26
2022-10-11T20:55:45.736Z,15.26
2022-10-11T20:58:34.052Z,15.25
2022-10-11T21:01:25.422Z,15.24
2022-10-11T21:04:19.104Z,15.22
2022-10-11T21:07:07.158Z,15.23
2022-10-11T21:09:55.622Z,15.20
2022-10-11T21:12:44.901Z,15.17
2022-10-11T21:15:34.791Z,15.14
2022-10-11T21:18:23.332Z,15.10
2022-10-11T21:21:13.315Z,15.07
2022-10-11T21:24:02.587Z,15.07
2022-10-11T21:26:50.632Z,15.06
2022-10-11T21:29:38.802Z,15.06
2022-10-11T21:32:29.301Z,15.05
2022-10-11T21:35:17.793Z,15.04
2022-10-11T21:38:05.795Z,15.04
2022-10-11T21:41:00.182Z,15.02
2022-10-11T21:43:56.284Z,15.01
2022-10-11T21:47:05.909Z,14.99
2022-10-11T21:50:00.546Z,14.99
2022-10-11T21:52:53.335Z,14.99
2022-10-11T21:55:45.156Z,14.99
2022-10-11T21:58:37.291Z,14.97
2022-10-11T22:01:29.454Z,14.97
2022-10-11T22:04:22.152Z,14.93
2022-10-11T22:07:14.049Z,14.91
2022-10-11T22:10:08.125Z,14.87
2022-10-11T22:12:56.623Z,14.83
2022-10-11T22:15:44.928Z,14.78
2022-10-11T22:18:33.761Z,14.75
2022-10-11T22:21:26.822Z,14.74
2022-10-11T22:24:16.100Z,14.75
2022-10-11T22:27:04.431Z,14.75
2022-10-11T22:29:52.438Z,14.75
2022-10-11T22:32:40.479Z,14.75
2022-10-11T22:35:31.357Z,14.76
2022-10-11T22:38:21.885Z,14.76
2022-10-11T22:41:10.947Z,14.77
2022-10-11T22:43:59.142Z,14.75
2022-10-11T22:46:47.041Z,14.73
2022-10-11T22:49:35.692Z,14.72
2022-10-11T22:52:24.089Z,14.72
2022-10-11T22:55:16.235Z,14.71
2022-10-11T22:58:07.744Z,14.70
2022-10-11T23:00:55.735Z,14.69
2022-10-11T23:03:47.201Z,14.68
2022-10-11T23:06:38.506Z,14.66
2022-10-11T23:09:28.478Z,14.64
2022-10-11T23:12:16.438Z,14.62
2022-10-11T23:15:06.242Z,14.61
2022-10-11T23:17:55.132Z,14.60
2022-10-11T23:20:43.522Z,14.56
2022-10-11T23:23:33.186Z,14.52
2022-10-11T23:26:23.981Z,14.49
2022-10-11T23:29:12.043Z,14.47
2022-10-11T23:32:00.122Z,14.44
2022-10-11T23:34:48.028Z,14.43
2022-10-11T23:37:36.639Z,14.42
2022-10-11T23:40:24.997Z,14.41
2022-10-11T23:43:13.111Z,14.39
2022-10-11T23:46:01.287Z,14.35
2022-10-11T23:48:49.534Z,14.33
2022-10-11T23:51:37.834Z,14.28
2022-10-11T23:54:26.308Z,14.23
2022-10-11T23:57:14.411Z,14.18
